Farmington River @ Simsbury, Ct

Farmington River at Simsbury
 Total Drainage Area: 497 sq. miles 
 Drainage Area Controlled by Corps Dams: 139 sq. miles (28%) 
 Warning Flow/Stage: 1,870 cfs / 6.0 feet 
 Flood Flow/Stage: 6,410 cfs / 12.0 feet 
Date Time
(Eastern)
Stage
(ft)
Flow
(cfs)
CSM
(cfs / sq. mi.)
Jun-25 01:30 am 3.05 638 1.3
Jun-25 12:30 am 3.09 648 1.3
Jun-24 11:30 pm 3.14 662 1.3
Jun-24 10:30 pm 3.19 675 1.4
Jun-24 09:30 pm 3.22 683 1.4
Jun-24 08:30 pm 3.27 697 1.4
Jun-24 07:30 pm 3.32 710 1.4
Jun-24 06:30 pm 3.38 727 1.5
Jun-24 05:30 pm 3.43 741 1.5
Jun-24 04:30 pm 3.49 758 1.5
Jun-24 03:30 pm 3.55 774 1.6
Jun-24 02:30 pm 3.61 794 1.6
Jun-24 01:30 pm 3.67 816 1.6
Jun-24 12:30 pm 3.73 838 1.7
Jun-24 11:30 am 3.79 860 1.7
Jun-24 10:30 am 3.86 886 1.8
Jun-24 09:30 am 3.93 913 1.8
Jun-24 08:30 am 3.99 936 1.9
Jun-24 07:30 am 4.06 963 1.9
Jun-24 06:30 am 4.12 987 2.0
Jun-24 05:30 am 4.18 1,010 2.0
Jun-24 04:30 am 4.23 1,030 2.1
Jun-24 03:30 am 4.29 1,060 2.1
Jun-24 02:30 am 4.33 1,070 2.2
Jun-24 01:30 am 4.37 1,090 2.2
Report Generated June 25, 2024 02:16 am